Time;durP1;ratioP1;P1;durP2;ratioP2;P2;SDS_P1;SDS_P2;PMS_P1;PMS_P2;Temp;Humidity;BMP_temperature;BMP_pressure;BME280_temperature;BME280_humidity;BME280_pressure;Samples;Min_cycle;Max_cycle;Signal;HPM_P1;HPM_P2
2023/09/17 00:02:14;;;;;;;3.42;2.95;;;;;;;22.62;52.80;101444.50;5111810;28;20032;-75
2023/09/17 00:04:40;;;;;;;3.80;3.15;;;;;;;22.54;52.83;101428.31;5117102;28;20058;-74
2023/09/17 00:07:05;;;;;;;4.43;3.22;;;;;;;22.65;52.77;101437.91;5117865;28;20491;-75
2023/09/17 00:09:30;;;;;;;3.40;2.70;;;;;;;22.73;52.75;101455.97;5108790;28;20063;-74
2023/09/17 00:11:55;;;;;;;4.32;3.08;;;;;;;22.54;52.56;101411.22;5120879;28;20046;-75
2023/09/17 00:14:21;;;;;;;3.22;2.83;;;;;;;22.59;52.48;101423.19;5118152;27;20051;-75
2023/09/17 00:16:47;;;;;;;3.13;2.83;;;;;;;22.73;52.50;101445.13;5095975;28;20016;-74
2023/09/17 00:19:12;;;;;;;3.50;2.90;;;;;;;22.53;52.49;101417.66;5118870;28;20019;-75
2023/09/17 00:21:38;;;;;;;3.00;2.70;;;;;;;22.72;52.66;101441.56;5118392;28;20464;-74
2023/09/17 00:24:03;;;;;;;3.45;3.15;;;;;;;22.73;52.55;101439.72;5112589;28;20114;-74
2023/09/17 00:26:28;;;;;;;4.03;2.70;;;;;;;22.48;52.39;101403.81;5120677;28;20020;-74
2023/09/17 00:28:54;;;;;;;3.40;2.70;;;;;;;22.72;52.32;101449.69;5113690;28;20034;-74
2023/09/17 00:31:19;;;;;;;3.03;2.72;;;;;;;22.70;52.54;101443.63;5111654;28;20030;-75
2023/09/17 00:33:44;;;;;;;3.17;2.78;;;;;;;22.70;52.39;101446.31;5119737;28;20052;-75
2023/09/17 00:36:09;;;;;;;4.40;3.13;;;;;;;22.72;52.30;101446.97;5111140;28;20028;-74
2023/09/17 00:38:35;;;;;;;2.97;2.63;;;;;;;22.72;52.43;101455.09;5117622;28;20019;-75
2023/09/17 00:41:00;;;;;;;2.80;2.50;;;;;;;22.72;52.44;101452.41;5118324;28;20028;-74
2023/09/17 00:43:26;;;;;;;3.08;2.78;;;;;;;22.67;52.33;101449.38;5111522;28;20051;-74
2023/09/17 00:45:51;;;;;;;3.05;2.50;;;;;;;22.71;52.45;101456.13;5115310;28;20028;-74
2023/09/17 00:48:16;;;;;;;4.32;3.03;;;;;;;22.67;52.28;101447.50;5115742;28;20048;-74
2023/09/17 00:50:42;;;;;;;3.60;2.65;;;;;;;22.71;52.43;101450.72;5107956;28;20020;-75
2023/09/17 00:53:07;;;;;;;2.90;2.60;;;;;;;22.70;52.63;101449.03;5123630;28;20019;-74
2023/09/17 00:55:33;;;;;;;3.35;2.90;;;;;;;22.63;52.30;101434.50;5114294;28;20023;-74
2023/09/17 00:57:59;;;;;;;3.72;2.95;;;;;;;22.69;52.45;101436.50;5122448;28;20020;-74
2023/09/17 01:00:25;;;;;;;2.60;2.40;;;;;;;22.51;52.30;101404.25;5109075;28;20493;-74
2023/09/17 01:02:51;;;;;;;2.95;2.33;;;;;;;22.68;52.59;101432.09;5106817;28;20028;-74
2023/09/17 01:05:17;;;;;;;4.32;3.00;;;;;;;22.67;52.48;101433.97;5109944;28;20019;-75
2023/09/17 01:07:43;;;;;;;3.28;2.75;;;;;;;22.68;52.60;101430.25;5107305;28;20024;-74
2023/09/17 01:10:09;;;;;;;3.22;2.63;;;;;;;22.52;52.49;101407.84;5107067;28;20042;-74
2023/09/17 01:12:35;;;;;;;3.97;2.92;;;;;;;22.67;52.45;101427.72;5111290;28;20020;-74
2023/09/17 01:15:03;;;;;;;3.50;3.20;;;;;;;22.67;52.46;101425.84;5110617;27;20102;-74
2023/09/17 01:17:30;;;;;;;3.28;2.70;;;;;;;22.67;52.35;101425.84;5105275;28;20020;-75
2023/09/17 01:19:56;;;;;;;4.45;2.83;;;;;;;22.59;52.50;101415.06;5112064;28;20031;-75
2023/09/17 01:22:26;;;;;;;3.88;3.08;;;;;;;22.46;52.50;101388.56;5109331;28;20028;-75
2023/09/17 01:25:18;;;;;;;3.20;2.83;;;;;;;22.48;52.34;101391.09;5103059;28;20039;-75
2023/09/17 01:27:44;;;;;;;3.08;2.78;;;;;;;22.46;52.48;101372.28;5104545;28;20027;-75
2023/09/17 01:30:16;;;;;;;3.25;2.58;;;;;;;22.53;52.44;101371.59;5112327;28;20081;-75
2023/09/17 01:32:45;;;;;;;3.38;3.08;;;;;;;22.65;52.58;101380.97;5109907;28;20087;-75
2023/09/17 01:35:13;;;;;;;3.15;2.85;;;;;;;22.56;52.46;101368.53;5111029;28;20023;-74
2023/09/17 01:37:42;;;;;;;3.78;3.03;;;;;;;22.64;52.43;101380.13;5121274;28;20028;-75
2023/09/17 01:40:10;;;;;;;;;;;;;;;22.62;52.45;101374.03;5110746;28;20633;-75
2023/09/17 01:42:38;;;;;;;3.67;2.80;;;;;;;22.51;52.44;101354.66;5113294;28;19908;-75
2023/09/17 01:45:06;;;;;;;3.10;2.80;;;;;;;22.60;52.48;101367.09;5109745;28;20028;-75
2023/09/17 01:47:32;;;;;;;3.38;3.08;;;;;;;22.61;52.48;101366.94;5111960;28;20036;-75
2023/09/17 01:49:59;;;;;;;3.38;3.00;;;;;;;22.48;52.64;101355.03;5112468;28;20019;-75
2023/09/17 01:52:26;;;;;;;3.40;3.10;;;;;;;22.61;52.54;101366.94;5108151;28;20023;-75
2023/09/17 01:54:52;;;;;;;3.40;2.78;;;;;;;22.61;52.42;101363.41;5115809;28;20042;-75
2023/09/17 01:57:18;;;;;;;3.10;2.72;;;;;;;22.60;52.61;101365.25;5112205;28;20053;-75
2023/09/17 01:59:44;;;;;;;3.90;2.97;;;;;;;22.60;52.55;101359.84;5107919;28;20016;-75
2023/09/17 02:02:09;;;;;;;3.03;2.72;;;;;;;22.25;52.61;101301.69;5119250;28;20019;-75
2023/09/17 02:04:35;;;;;;;3.20;2.90;;;;;;;22.36;52.39;101325.66;5111586;28;20029;-74
2023/09/17 02:07:00;;;;;;;3.45;2.90;;;;;;;22.58;52.62;101358.34;5109563;28;20438;-75
2023/09/17 02:09:25;;;;;;;3.38;3.03;;;;;;;22.50;52.77;101350.25;5116701;28;20040;-75
2023/09/17 02:11:50;;;;;;;4.55;3.60;;;;;;;22.55;52.18;101356.81;5119849;28;20098;-74
2023/09/17 02:14:16;;;;;;;3.17;2.88;;;;;;;22.43;52.73;101348.28;5109679;27;20083;-75
2023/09/17 02:16:42;;;;;;;4.28;3.38;;;;;;;22.58;52.52;101375.44;5117185;28;20358;-75
2023/09/17 02:19:09;;;;;;;2.95;2.60;;;;;;;22.47;52.51;101356.88;5111697;28;20046;-75
2023/09/17 02:21:34;;;;;;;3.97;2.83;;;;;;;22.45;52.57;101348.09;5112453;28;20057;-74
2023/09/17 02:24:00;;;;;;;3.47;2.90;;;;;;;22.49;52.64;101354.00;5117117;28;20028;-75
2023/09/17 02:26:25;;;;;;;3.30;3.00;;;;;;;22.55;52.62;101366.81;5107920;28;20039;-75
2023/09/17 02:28:51;;;;;;;3.40;2.60;;;;;;;22.57;52.59;101384.59;5113204;28;20046;-75
2023/09/17 02:31:16;;;;;;;3.95;2.80;;;;;;;22.52;52.49;101378.03;5118997;28;20016;-75
2023/09/17 02:33:41;;;;;;;4.13;2.95;;;;;;;22.51;52.50;101381.75;5107905;28;20023;-75
2023/09/17 02:36:07;;;;;;;3.38;3.08;;;;;;;22.45;52.72;101370.63;5118139;28;20036;-75
2023/09/17 02:38:33;;;;;;;3.67;3.17;;;;;;;22.45;52.72;101365.19;5116912;28;20493;-75
2023/09/17 02:40:58;;;;;;;3.08;2.75;;;;;;;22.57;52.42;101391.88;5091597;28;20020;-74
2023/09/17 02:43:24;;;;;;;4.28;3.53;;;;;;;22.48;52.75;101379.44;5117585;28;20031;-75
2023/09/17 02:45:49;;;;;;;3.17;2.63;;;;;;;22.33;52.68;101360.38;5112765;28;20028;-75
2023/09/17 02:48:15;;;;;;;3.70;2.83;;;;;;;22.35;52.57;101380.88;5107443;28;20028;-75
2023/09/17 02:50:40;;;;;;;3.45;2.72;;;;;;;22.42;52.69;101392.66;5116808;28;20027;-75
2023/09/17 02:53:07;;;;;;;2.90;2.60;;;;;;;22.56;52.64;101403.75;5110404;28;20032;-75
2023/09/17 02:55:33;;;;;;;3.20;2.90;;;;;;;22.40;52.43;101364.06;5106050;28;20019;-75
2023/09/17 02:58:01;;;;;;;2.75;2.50;;;;;;;22.45;52.57;101367.91;5116998;28;20107;-74
2023/09/17 03:00:26;;;;;;;3.40;3.08;;;;;;;22.42;52.55;101360.13;5092251;28;20023;-75
2023/09/17 03:02:54;;;;;;;3.33;2.53;;;;;;;22.54;52.75;101382.22;5112271;28;20042;-75
2023/09/17 03:05:20;;;;;;;2.95;2.65;;;;;;;22.34;52.49;101349.34;5115513;28;20488;-75
2023/09/17 03:07:46;;;;;;;3.67;2.78;;;;;;;22.48;52.64;101363.16;5104671;28;20032;-75
2023/09/17 03:10:12;;;;;;;3.20;2.90;;;;;;;22.46;52.61;101371.47;5107231;28;20532;-75
2023/09/17 03:12:41;;;;;;;3.58;2.92;;;;;;;22.52;52.80;101369.91;5104664;28;20392;-75
2023/09/17 03:15:07;;;;;;;4.18;2.92;;;;;;;22.42;52.60;101351.16;5100171;28;20103;-75
2023/09/17 03:17:33;;;;;;;3.35;2.80;;;;;;;22.45;52.48;101358.94;5110596;28;20069;-75
2023/09/17 03:19:58;;;;;;;3.58;2.92;;;;;;;22.46;52.89;101347.91;5099082;28;20016;-75
2023/09/17 03:22:24;;;;;;;3.30;3.00;;;;;;;22.51;52.76;101360.06;5107541;28;20028;-75
2023/09/17 03:24:50;;;;;;;3.70;2.72;;;;;;;22.44;52.56;101349.13;5110071;28;20051;-75
2023/09/17 03:27:16;;;;;;;4.30;2.63;;;;;;;22.21;52.59;101317.44;5106054;28;20020;-75
2023/09/17 03:29:41;;;;;;;3.55;2.53;;;;;;;22.49;52.43;101352.13;5107834;28;20024;-75
2023/09/17 03:32:06;;;;;;;3.35;2.75;;;;;;;22.50;52.63;101352.97;5107626;28;20023;-75
2023/09/17 03:34:32;;;;;;;4.00;3.30;;;;;;;22.32;52.63;101326.19;5106835;28;20461;-75
2023/09/17 03:36:58;;;;;;;3.88;2.67;;;;;;;22.32;52.63;101318.91;5109556;28;20020;-75
2023/09/17 03:39:24;;;;;;;3.13;2.78;;;;;;;22.49;52.78;101348.59;5107863;28;20027;-75
2023/09/17 03:41:49;;;;;;;3.28;2.70;;;;;;;22.42;52.56;101348.44;5107773;28;20049;-75
2023/09/17 03:44:14;;;;;;;3.58;2.90;;;;;;;22.47;52.77;101348.75;5119581;28;20021;-75
2023/09/17 03:46:40;;;;;;;3.05;2.60;;;;;;;22.39;52.61;101321.75;5115589;28;20393;-75
2023/09/17 03:49:05;;;;;;;3.30;3.00;;;;;;;22.21;52.64;101289.53;5106186;28;20024;-75
2023/09/17 03:51:31;;;;;;;2.97;2.60;;;;;;;22.23;52.67;101308.31;5111305;28;20020;-75
2023/09/17 03:53:56;;;;;;;3.85;3.05;;;;;;;22.32;52.46;101310.78;5111159;28;20053;-74
2023/09/17 03:56:22;;;;;;;2.97;2.60;;;;;;;22.25;52.79;101296.25;5107669;28;20479;-75
2023/09/17 03:58:48;;;;;;;2.90;2.60;;;;;;;22.45;52.65;101337.25;5112350;28;20016;-75
2023/09/17 04:01:13;;;;;;;3.10;2.80;;;;;;;22.26;52.70;101300.69;5118051;28;20023;-75
2023/09/17 04:03:39;;;;;;;4.57;2.90;;;;;;;22.45;52.52;101326.44;5116214;28;20024;-75
2023/09/17 04:06:04;;;;;;;3.00;2.70;;;;;;;22.40;52.55;101320.72;5115470;28;20028;-75
2023/09/17 04:08:30;;;;;;;3.00;2.40;;;;;;;22.19;52.49;101288.88;5111339;28;20063;-75
2023/09/17 04:10:55;;;;;;;4.25;3.40;;;;;;;22.25;52.72;101295.44;5107592;28;20024;-75
2023/09/17 04:13:21;;;;;;;2.90;2.60;;;;;;;22.43;52.54;101323.91;5117683;28;20120;-75
2023/09/17 04:15:46;;;;;;;3.08;2.78;;;;;;;22.42;52.53;101324.91;5111721;28;20027;-75
2023/09/17 04:18:11;;;;;;;3.55;2.78;;;;;;;22.35;52.49;101307.72;5109241;28;20108;-75
2023/09/17 04:20:36;;;;;;;3.42;2.90;;;;;;;22.39;52.59;101313.63;5114252;28;20034;-75
2023/09/17 04:23:03;;;;;;;4.03;3.50;;;;;;;22.32;52.51;101297.25;5108735;28;20024;-75
2023/09/17 04:25:29;;;;;;;3.45;3.08;;;;;;;22.41;52.76;101306.97;5119307;28;20044;-74
2023/09/17 04:27:55;;;;;;;3.20;2.83;;;;;;;22.29;52.53;101291.34;5117570;28;20023;-75
2023/09/17 04:30:20;;;;;;;3.20;2.75;;;;;;;22.26;52.52;101286.28;5109868;28;20088;-75
2023/09/17 04:32:47;;;;;;;3.00;2.72;;;;;;;22.25;52.59;101285.44;5115397;28;20039;-74
2023/09/17 04:35:15;;;;;;;3.42;2.67;;;;;;;22.39;52.67;101317.16;5115312;28;20075;-75
2023/09/17 04:37:41;;;;;;;3.22;2.88;;;;;;;22.17;52.56;101282.78;5110346;28;20027;-75
2023/09/17 04:40:11;;;;;;;3.22;2.80;;;;;;;22.35;52.51;101305.00;5121288;28;20039;-75
2023/09/17 04:42:40;;;;;;;3.00;2.60;;;;;;;21.95;52.50;101233.00;5114146;28;20511;-75
2023/09/17 04:45:06;;;;;;;3.65;2.95;;;;;;;22.21;52.64;101278.69;5106302;28;20016;-75
2023/09/17 04:47:36;;;;;;;2.80;2.47;;;;;;;22.38;52.64;101301.06;5119388;28;20024;-75
2023/09/17 04:50:02;;;;;;;3.17;2.78;;;;;;;22.33;52.61;101309.75;5121192;28;20038;-75
2023/09/17 04:52:28;;;;;;;3.08;2.72;;;;;;;22.16;52.48;101290.06;5098810;28;20079;-75
2023/09/17 04:54:53;;;;;;;4.03;2.58;;;;;;;22.23;52.71;101300.19;5121523;28;20088;-75
2023/09/17 04:57:18;;;;;;;2.97;2.55;;;;;;;22.17;52.65;101296.31;5113825;28;20048;-75
2023/09/17 04:59:44;;;;;;;4.32;3.25;;;;;;;22.29;52.51;101321.97;5105807;28;20019;-75
2023/09/17 05:02:09;;;;;;;3.30;2.60;;;;;;;22.30;52.62;101322.81;5117846;28;20028;-75
2023/09/17 05:04:35;;;;;;;3.50;2.80;;;;;;;22.15;52.59;101299.22;5108841;28;20083;-75
2023/09/17 05:07:00;;;;;;;3.33;3.03;;;;;;;22.35;52.60;101325.84;5112337;28;20027;-74
2023/09/17 05:09:26;;;;;;;3.05;2.75;;;;;;;22.34;52.65;101327.69;5116942;28;20485;-75
2023/09/17 05:11:51;;;;;;;3.15;2.78;;;;;;;22.21;52.61;101314.75;5108287;28;20028;-75
2023/09/17 05:14:17;;;;;;;3.72;2.92;;;;;;;22.01;52.49;101281.03;5118327;27;20567;-75
2023/09/17 05:16:42;;;;;;;3.13;2.63;;;;;;;22.07;52.73;101284.88;5115047;28;20582;-75
2023/09/17 05:19:07;;;;;;;3.35;2.78;;;;;;;22.11;52.68;101283.50;5112449;28;20023;-75
2023/09/17 05:21:32;;;;;;;3.45;2.92;;;;;;;21.84;52.87;101244.28;5109958;28;20044;-75
2023/09/17 05:23:58;;;;;;;3.15;2.85;;;;;;;21.94;52.61;101261.09;5105833;28;20028;-75
2023/09/17 05:26:23;;;;;;;4.40;2.75;;;;;;;22.28;52.72;101317.59;5110589;28;20517;-75
2023/09/17 05:28:49;;;;;;;2.88;2.58;;;;;;;22.30;52.63;101304.72;5107633;28;20020;-75
2023/09/17 05:31:14;;;;;;;3.33;2.70;;;;;;;22.23;52.61;101297.50;5122548;28;20430;-75
2023/09/17 05:33:39;;;;;;;2.97;2.55;;;;;;;22.03;52.74;101267.31;5109925;28;20035;-75
2023/09/17 05:36:05;;;;;;;3.50;2.60;;;;;;;22.16;52.50;101292.78;5106833;28;20039;-75
2023/09/17 05:38:30;;;;;;;3.30;2.95;;;;;;;22.22;52.48;101312.91;5107325;28;20087;-75
2023/09/17 05:40:56;;;;;;;3.20;2.90;;;;;;;22.29;52.51;101316.56;5109829;28;20078;-75
2023/09/17 05:43:22;;;;;;;2.85;2.53;;;;;;;22.27;52.83;101321.31;5115207;28;20503;-75
2023/09/17 05:45:49;;;;;;;3.22;2.65;;;;;;;22.28;52.72;101314.03;5119577;28;20032;-75
2023/09/17 05:48:14;;;;;;;2.83;2.53;;;;;;;22.06;52.82;101281.31;5104912;28;20668;-74
2023/09/17 05:50:40;;;;;;;2.80;2.50;;;;;;;22.16;52.66;101306.31;5117073;28;20052;-75
2023/09/17 05:53:05;;;;;;;3.25;2.70;;;;;;;22.06;52.62;101281.31;5108975;28;20059;-75
2023/09/17 05:55:30;;;;;;;3.40;2.75;;;;;;;21.99;52.59;101279.50;5112860;28;20020;-75
2023/09/17 05:57:55;;;;;;;4.03;2.83;;;;;;;22.10;52.69;101288.06;5119344;28;20024;-75
2023/09/17 06:00:22;;;;;;;2.75;2.50;;;;;;;22.05;52.66;101284.22;5109059;28;20079;-75
2023/09/17 06:02:47;;;;;;;4.00;3.28;;;;;;;22.25;52.92;101323.34;5115583;28;20023;-75
2023/09/17 06:05:12;;;;;;;3.80;2.95;;;;;;;22.13;52.91;101295.88;5110482;28;20034;-75
2023/09/17 06:07:38;;;;;;;2.75;2.55;;;;;;;22.05;52.83;101285.06;5110782;28;20024;-75
2023/09/17 06:10:04;;;;;;;2.80;2.60;;;;;;;22.07;52.67;101274.88;5112567;28;20048;-75
2023/09/17 06:12:30;;;;;;;3.45;2.75;;;;;;;22.19;53.00;101300.56;5111817;28;20031;-74
2023/09/17 06:14:55;;;;;;;2.65;2.17;;;;;;;22.20;52.73;101306.81;5112127;27;20032;-75
2023/09/17 06:17:20;;;;;;;2.80;2.60;;;;;;;22.21;52.92;101309.31;5122978;28;20109;-75
2023/09/17 06:19:45;;;;;;;3.35;2.92;;;;;;;22.19;52.97;101305.13;5110856;28;20020;-75
2023/09/17 06:22:11;;;;;;;4.32;2.78;;;;;;;22.23;52.83;101309.16;5119672;28;20028;-75
2023/09/17 06:24:36;;;;;;;3.13;2.80;;;;;;;21.78;52.71;101234.16;5119835;28;20023;-75
2023/09/17 06:27:03;;;;;;;3.47;2.97;;;;;;;22.23;52.68;101311.03;5107845;28;20031;-75
2023/09/17 06:29:29;;;;;;;4.18;3.00;;;;;;;21.96;52.89;101259.03;5114262;28;20030;-75
2023/09/17 06:31:54;;;;;;;3.70;2.95;;;;;;;22.21;52.75;101305.78;5115380;28;20071;-75
2023/09/17 06:34:19;;;;;;;3.28;2.85;;;;;;;22.08;52.58;101281.13;5103814;28;20034;-75
2023/09/17 06:36:45;;;;;;;3.75;3.05;;;;;;;22.21;53.04;101300.38;5115855;28;20024;-75
2023/09/17 06:39:10;;;;;;;2.80;2.55;;;;;;;22.15;52.76;101293.81;5119661;28;20098;-75
2023/09/17 06:41:39;;;;;;;3.72;2.67;;;;;;;22.20;52.93;101296.81;5106525;28;20032;-75
2023/09/17 06:44:05;;;;;;;3.22;2.83;;;;;;;21.90;52.82;101254.38;5117152;28;20020;-75
2023/09/17 06:46:30;;;;;;;4.43;2.90;;;;;;;22.06;52.77;101275.06;5104126;28;20030;-75
2023/09/17 06:48:55;;;;;;;3.85;2.42;;;;;;;22.19;52.77;101310.56;5105113;28;20123;-75
2023/09/17 06:51:21;;;;;;;3.15;2.47;;;;;;;21.76;52.84;101234.34;5119935;28;20465;-75
2023/09/17 06:53:46;;;;;;;3.03;2.50;;;;;;;22.18;52.70;101298.03;5111297;28;20030;-75
2023/09/17 06:56:13;;;;;;;3.47;2.88;;;;;;;22.18;52.82;101285.34;5113179;28;20396;-75
2023/09/17 06:58:38;;;;;;;3.33;2.92;;;;;;;22.04;52.86;101269.81;5115578;28;20039;-75
2023/09/17 07:01:05;;;;;;;3.83;2.65;;;;;;;21.96;52.76;101253.63;5112264;28;20016;-75
2023/09/17 07:03:30;;;;;;;3.08;2.58;;;;;;;21.95;52.92;101244.66;5120550;28;20035;-74
2023/09/17 07:05:55;;;;;;;3.00;2.70;;;;;;;22.17;52.83;101286.38;5115519;28;20024;-75
2023/09/17 07:08:21;;;;;;;4.90;2.67;;;;;;;21.95;52.99;101250.09;5108624;28;20536;-74
2023/09/17 07:10:46;;;;;;;3.17;2.53;;;;;;;22.02;53.04;101250.22;5112850;28;20034;-75
2023/09/17 07:13:12;;;;;;;3.08;2.53;;;;;;;21.93;52.94;101235.06;5096261;28;20055;-75
2023/09/17 07:15:37;;;;;;;3.03;2.65;;;;;;;22.17;52.97;101269.25;5108583;28;20062;-75
2023/09/17 07:18:03;;;;;;;3.42;3.08;;;;;;;22.00;52.95;101248.69;5116411;28;20020;-74
2023/09/17 07:20:28;;;;;;;3.53;2.75;;;;;;;22.12;52.89;101264.38;5113688;28;20030;-74
2023/09/17 07:22:53;;;;;;;3.00;2.70;;;;;;;21.87;52.87;101220.38;5105383;28;20034;-75
2023/09/17 07:25:19;;;;;;;3.17;2.88;;;;;;;21.84;52.90;101209.09;5118758;28;20020;-75
2023/09/17 07:27:44;;;;;;;2.70;2.45;;;;;;;21.93;53.12;101227.78;5110351;28;20139;-75
2023/09/17 07:30:10;;;;;;;3.53;2.90;;;;;;;22.11;52.93;101254.53;5110569;28;20023;-74
2023/09/17 07:32:36;;;;;;;3.55;2.75;;;;;;;21.95;53.08;101224.88;5108977;28;20055;-74
2023/09/17 07:35:02;;;;;;;3.17;2.80;;;;;;;21.95;52.79;101227.59;5117760;28;20408;-75
2023/09/17 07:37:28;;;;;;;3.10;2.67;;;;;;;22.17;52.85;101264.69;5107438;28;20020;-74
2023/09/17 07:40:01;;;;;;;3.22;2.63;;;;;;;22.02;52.96;101233.97;5105427;28;20034;-74
2023/09/17 07:42:26;;;;;;;3.05;2.60;;;;;;;22.16;52.77;101254.88;5119138;28;20034;-75
2023/09/17 07:44:51;;;;;;;4.25;2.92;;;;;;;22.17;52.88;101261.13;5107477;28;20422;-74
2023/09/17 07:47:17;;;;;;;3.63;3.03;;;;;;;21.89;52.89;101218.34;5105653;28;20119;-74
2023/09/17 07:49:42;;;;;;;3.60;2.75;;;;;;;21.93;52.92;101232.34;5104882;28;20083;-74
2023/09/17 07:52:08;;;;;;;3.55;3.00;;;;;;;21.91;52.98;101220.84;5092481;28;20047;-73
2023/09/17 07:54:41;;;;;;;3.42;3.08;;;;;;;22.17;53.17;101271.94;5099069;28;20077;-75
2023/09/17 07:57:07;;;;;;;5.05;3.10;;;;;;;22.18;52.89;101273.66;5109279;28;20332;-75
2023/09/17 07:59:32;;;;;;;3.45;2.83;;;;;;;22.17;53.14;101274.66;5108109;28;20047;-74
2023/09/17 08:01:58;;;;;;;3.20;2.72;;;;;;;22.17;53.15;101253.00;5108812;28;20055;-74
2023/09/17 08:04:23;;;;;;;4.00;3.22;;;;;;;22.06;53.07;101248.84;5111735;28;20027;-74
2023/09/17 08:06:49;;;;;;;4.13;2.90;;;;;;;21.94;52.97;101224.03;5113312;28;20459;-75
2023/09/17 08:09:15;;;;;;;3.95;3.15;;;;;;;22.17;53.19;101270.13;5111652;28;20047;-74
2023/09/17 08:11:42;;;;;;;3.55;2.78;;;;;;;22.17;52.91;101259.28;5112160;28;20035;-74
2023/09/17 08:14:08;;;;;;;3.35;2.90;;;;;;;22.15;53.37;101266.72;5115144;27;20106;-74
2023/09/17 08:16:34;;;;;;;4.95;3.47;;;;;;;22.02;53.16;101239.38;5110923;28;20020;-75
2023/09/17 08:18:59;;;;;;;4.50;3.10;;;;;;;22.16;53.03;101263.00;5114660;28;20032;-74
2023/09/17 08:21:24;;;;;;;3.35;2.97;;;;;;;21.95;53.21;101228.44;5119790;28;20031;-75
2023/09/17 08:23:50;;;;;;;3.47;3.13;;;;;;;22.17;53.26;101266.53;5106474;28;20028;-74
2023/09/17 08:26:16;;;;;;;3.95;3.30;;;;;;;21.95;53.23;101228.44;5114322;28;20024;-74
2023/09/17 08:28:42;;;;;;;4.45;3.05;;;;;;;22.10;53.39;101255.56;5121726;28;20035;-74
2023/09/17 08:31:07;;;;;;;4.38;3.25;;;;;;;22.17;53.00;101263.81;5110173;28;20032;-75
2023/09/17 08:33:33;;;;;;;3.58;3.00;;;;;;;21.96;53.30;101237.38;5116450;28;20034;-74
2023/09/17 08:35:59;;;;;;;3.35;2.60;;;;;;;22.18;53.35;101268.25;5122149;28;20031;-74
2023/09/17 08:38:24;;;;;;;4.20;2.88;;;;;;;22.17;53.16;101262.00;5111090;28;20039;-75
2023/09/17 08:40:49;;;;;;;3.08;2.55;;;;;;;22.08;53.25;101248.63;5103651;28;20024;-74
2023/09/17 08:43:15;;;;;;;3.38;2.95;;;;;;;22.13;53.30;101257.09;5117674;28;20042;-74
2023/09/17 08:45:41;;;;;;;4.40;2.83;;;;;;;21.99;53.05;101234.31;5108765;28;20084;-74
2023/09/17 08:48:07;;;;;;;4.18;3.28;;;;;;;22.02;53.13;101236.69;5117775;28;20034;-74
2023/09/17 08:50:35;;;;;;;3.70;2.95;;;;;;;22.20;53.12;101266.19;5112306;28;20028;-74
2023/09/17 08:53:02;;;;;;;3.75;2.67;;;;;;;22.23;53.24;101267.69;5112924;28;20023;-74
2023/09/17 08:55:27;;;;;;;3.38;2.40;;;;;;;22.18;53.16;101260.97;5118296;28;20054;-74
2023/09/17 08:57:57;;;;;;;2.90;2.50;;;;;;;22.06;53.32;101237.16;5111081;28;20028;-74
2023/09/17 09:00:23;;;;;;;3.42;2.67;;;;;;;22.10;52.99;101250.16;5114584;28;20114;-74
2023/09/17 09:02:54;;;;;;;3.03;2.58;;;;;;;22.25;53.18;101268.34;5113791;28;20024;-74
2023/09/17 09:05:23;;;;;;;3.65;3.10;;;;;;;22.18;53.13;101252.00;5123345;28;20036;-74
2023/09/17 09:07:50;;;;;;;2.72;2.42;;;;;;;22.25;53.03;101266.47;5119442;28;20045;-74
2023/09/17 09:10:16;;;;;;;3.20;2.50;;;;;;;22.25;53.11;101261.06;5118899;28;20022;-74
2023/09/17 09:12:42;;;;;;;2.90;2.47;;;;;;;22.20;53.23;101252.63;5110328;28;20071;-75
2023/09/17 09:15:10;;;;;;;3.08;2.53;;;;;;;22.25;53.08;101261.06;5117618;27;20028;-74
2023/09/17 09:17:35;;;;;;;3.78;2.90;;;;;;;22.00;53.17;101221.63;5116561;28;20024;-75
2023/09/17 09:20:00;;;;;;;2.65;2.40;;;;;;;22.19;53.02;101249.09;5111868;28;20031;-74
2023/09/17 09:22:26;;;;;;;3.63;3.05;;;;;;;22.11;53.14;101234.75;5121175;28;20027;-75
2023/09/17 09:24:51;;;;;;;2.47;2.28;;;;;;;22.27;53.33;101266.31;5114463;28;20077;-74
2023/09/17 09:27:16;;;;;;;4.05;3.08;;;;;;;22.13;53.19;101236.28;5110410;28;20043;-75
2023/09/17 09:29:45;;;;;;;3.20;2.80;;;;;;;22.21;53.04;101255.16;5120394;28;20028;-75
2023/09/17 09:32:11;;;;;;;;;;;;;;;22.28;53.42;101257.16;5111600;28;20031;-75
2023/09/17 09:34:38;;;;;;;3.08;2.55;;;;;;;22.06;53.35;101226.34;5112258;28;19908;-75
2023/09/17 09:37:08;;;;;;;2.97;2.55;;;;;;;22.26;53.42;101264.59;5119533;28;20503;-74
2023/09/17 09:39:35;;;;;;;2.97;2.47;;;;;;;22.08;53.07;101226.97;5121477;28;20112;-74
2023/09/17 09:42:01;;;;;;;3.13;2.72;;;;;;;22.13;53.35;101240.84;5113124;28;20073;-74
2023/09/17 09:44:26;;;;;;;3.20;2.55;;;;;;;22.14;53.12;101245.25;5108565;28;20024;-74
2023/09/17 09:46:59;;;;;;;2.35;2.15;;;;;;;22.27;53.09;101250.06;5105073;28;20031;-74
2023/09/17 09:49:25;;;;;;;2.95;2.42;;;;;;;22.28;53.02;101251.72;5111048;28;20153;-74
2023/09/17 09:51:51;;;;;;;2.60;2.40;;;;;;;22.20;53.18;101242.66;5107111;28;20032;-74
2023/09/17 09:54:17;;;;;;;2.90;2.28;;;;;;;22.14;52.86;101231.72;5109409;28;20016;-75
2023/09/17 09:56:42;;;;;;;3.20;2.72;;;;;;;22.05;53.30;101221.94;5113101;28;20058;-75
2023/09/17 09:59:07;;;;;;;2.67;2.25;;;;;;;22.25;53.31;101247.50;5090104;28;20027;-74
2023/09/17 10:01:39;;;;;;;2.90;2.38;;;;;;;21.90;53.31;101190.22;5104392;28;20083;-75
2023/09/17 10:04:06;;;;;;;3.10;2.55;;;;;;;22.19;53.46;101242.84;5111141;28;20420;-74
2023/09/17 10:06:32;;;;;;;2.55;2.10;;;;;;;22.05;53.56;101214.66;5107100;28;20060;-75
2023/09/17 10:08:59;;;;;;;2.38;2.13;;;;;;;22.25;53.37;101247.50;5109716;28;20067;-74
2023/09/17 10:11:26;;;;;;;2.38;2.05;;;;;;;22.06;53.32;101216.34;5108485;28;20036;-75
2023/09/17 10:13:53;;;;;;;3.35;2.50;;;;;;;21.90;53.32;101192.94;5108958;27;20122;-75
2023/09/17 10:16:19;;;;;;;3.03;1.90;;;;;;;22.20;53.19;101236.38;5111061;28;20031;-74
2023/09/17 10:18:45;;;;;;;3.15;2.55;;;;;;;22.25;53.33;101235.84;5117570;28;20413;-74
2023/09/17 10:21:13;;;;;;;2.47;2.22;;;;;;;22.24;53.41;101229.59;5106165;28;20020;-75
2023/09/17 10:23:39;;;;;;;2.60;2.13;;;;;;;21.98;53.34;101188.50;5120213;28;20031;-74
2023/09/17 10:26:05;;;;;;;2.15;1.95;;;;;;;22.24;53.29;101232.28;5118973;28;20032;-74
2023/09/17 10:28:33;;;;;;;2.58;1.90;;;;;;;22.24;53.34;101229.59;5111433;28;20035;-75
2023/09/17 10:31:00;;;;;;;3.05;2.28;;;;;;;22.09;53.40;101198.88;5110816;28;20111;-75
2023/09/17 10:33:27;;;;;;;2.30;2.10;;;;;;;22.14;53.24;101210.88;5116884;28;20039;-75
2023/09/17 10:35:55;;;;;;;2.67;2.20;;;;;;;22.26;53.34;101226.69;5108904;28;20028;-75
2023/09/17 10:38:22;;;;;;;2.42;1.90;;;;;;;22.06;53.40;101189.25;5113473;28;20110;-74
2023/09/17 10:40:48;;;;;;;2.53;2.28;;;;;;;22.12;53.39;101204.81;5103673;28;20641;-75
2023/09/17 10:43:15;;;;;;;2.90;2.53;;;;;;;22.12;53.57;101191.25;5110901;28;20092;-74
2023/09/17 10:45:41;;;;;;;3.08;2.50;;;;;;;22.27;53.49;101214.84;5119124;28;20095;-75
2023/09/17 10:48:06;;;;;;;2.30;2.03;;;;;;;22.07;53.33;101177.41;5108899;28;20031;-74
2023/09/17 10:50:36;;;;;;;3.03;2.45;;;;;;;22.29;53.63;101218.19;5112320;28;20377;-74
2023/09/17 10:53:02;;;;;;;2.80;2.25;;;;;;;22.04;53.27;101166.94;5118569;28;20520;-74
2023/09/17 10:55:32;;;;;;;2.60;2.30;;;;;;;22.29;53.46;101204.66;5110236;28;20034;-74
2023/09/17 10:58:13;;;;;;;2.55;2.30;;;;;;;22.28;53.44;101206.53;5114956;28;20028;-75
2023/09/17 11:00:42;;;;;;;2.58;2.15;;;;;;;22.07;53.70;101168.44;5104376;28;20016;-74
2023/09/17 11:03:10;;;;;;;3.35;2.42;;;;;;;22.28;53.69;101206.53;5111242;28;20024;-74
2023/09/17 11:05:38;;;;;;;2.70;2.28;;;;;;;22.28;53.57;101203.81;5115151;28;20024;-74
2023/09/17 11:08:05;;;;;;;2.70;2.42;;;;;;;22.08;53.61;101172.81;5110518;28;20028;-75
2023/09/17 11:10:30;;;;;;;3.10;2.72;;;;;;;22.06;53.64;101161.34;5111539;28;20027;-74
2023/09/17 11:12:56;;;;;;;3.00;2.70;;;;;;;22.19;53.91;101184.09;5119753;28;20027;-74
2023/09/17 11:15:21;;;;;;;3.92;2.75;;;;;;;22.29;53.90;101197.38;5114215;27;20083;-74
2023/09/17 11:17:49;;;;;;;3.33;2.95;;;;;;;21.96;53.73;101142.63;5112840;28;20079;-74
2023/09/17 11:20:16;;;;;;;2.95;2.45;;;;;;;22.12;54.21;101172.31;5114284;28;20023;-75
2023/09/17 11:22:43;;;;;;;2.72;2.33;;;;;;;22.29;53.83;101200.06;5102509;28;20106;-74